• Join FlightAware (Why Join?)
  • Login
  • US Flag 
08:56AM EST


 

Airport Tracker/Info


-or-


 

Live Flight TrackerFlight Track Log ✈ N137TK ✈ 27-Aug-2013 ✈ NVSF / CCV - KARW

Flight Track Log - Related Links

Times and Time Zones

All times are in EDT time to prevent confusion due to time zone crossing. See the N137TK flight status page for this flight to view local times or setup timezone preferences in your user account.

Time Position Orientation Groundspeed Altitude Reporting Facility
EDT Latitude Longitude Course Direction KTS MPH feet Rate Location/Type
03:48PM 37.1983 -76.0431 61° Northeast 206 237 13,500  Level Washington Center
03:50PM 37.1397 -76.0739 203° Southwest 217 250 15,100 1,440 Climbing Washington Center
03:51PM 37.0811 -76.1047 203° Southwest 220 253 16,600 1,320 Climbing Washington Center
03:52PM 37.0289 -76.1306 202° Southwest 217 250 17,800 1,260 Climbing Washington Center
03:53PM 36.9747 -76.1586 202° Southwest 215 247 19,100 1,200 Climbing Washington Center
03:54PM -15.9669 168.4921 61° Northeast  Level Estimated
03:54PM 36.9286 -76.1972 214° Southwest 200 230 20,200  Level Washington Center
03:55PM 36.8844 -76.2489 223° Southwest 209 241 21,300 1,260 Climbing Washington Center
03:56PM 36.8425 -76.3006 225° Southwest 178 205 22,800 840 Climbing Washington Center
03:57PM 36.7983 -76.3544 224° Southwest 259 298 23,000 60 Climbing Washington Center
03:58PM 36.7458 -76.4189 225° Southwest 260 299 23,000  Level Washington Center
03:59PM 36.6931 -76.4881 226° Southwest 271 312 23,000 240 Level Washington Center
04:00PM 36.6361 -76.5547 223° Southwest 277 319 23,500 480 Climbing Washington Center
04:01PM 36.5836 -76.6189 224° Southwest 277 319 24,000 480 Climbing Washington Center
04:02PM 36.5286 -76.6828 223° Southwest 277 319 24,500 480 Climbing Washington Center
04:03PM 36.4719 -76.7414 220° Southwest 277 319 25,000 480 Climbing Washington Center
04:04PM 36.4150 -76.8000 220° Southwest 272 313 25,500 480 Climbing Washington Center
04:05PM 36.3600 -76.8558 219° Southwest 272 313 26,000 240 Climbing Washington Center
04:06PM 36.3011 -76.9142 219° Southwest 272 313 26,000  Level Washington Center
04:07PM 36.2400 -76.9750 219° Southwest 272 313 26,000  Level Washington Center
04:08PM 36.1808 -77.0356 220° Southwest 278 320 26,000  Level Washington Center
04:09PM 36.1194 -77.0989 220° Southwest 283 326 26,000  Level Washington Center
04:10PM 36.0603 -77.1594 220° Southwest 278 320 26,000  Level Washington Center
04:11PM 35.9989 -77.2222 220° Southwest 283 326 26,000  Level Washington Center
04:12PM 35.9333 -77.2875 219° Southwest 289 333 26,000  Level Washington Center
04:13PM 35.8697 -77.3503 219° Southwest 289 333 26,000  Level Washington Center
04:14PM 35.8083 -77.4131 220° Southwest 294 338 26,000  Level Washington Center
04:15PM 35.7447 -77.4756 219° Southwest 294 338 26,000  Level Washington Center
04:16PM 35.6811 -77.5406 220° Southwest 299 344 26,000  Level Washington Center
04:17PM 35.6175 -77.6028 218° Southwest 304 350 26,000  Level Washington Center
04:18PM 35.5539 -77.6678 220° Southwest 304 350 26,000  Level Washington Center
04:19PM 35.5028 -77.7172 218° Southwest 304 350 26,000  Level Washington Center
04:20PM 35.4308 -77.7869 218° Southwest 304 350 26,000  Level Washington Center
04:21PM 35.3669 -77.8486 218° Southwest 304 350 26,000  Level Washington Center
04:22PM 35.3011 -77.9131 219° Southwest 304 350 26,000  Level Washington Center
04:23PM 35.2392 -77.9775 220° Southwest 304 350 26,000  Level Washington Center
04:24PM 35.1756 -78.0392 218° Southwest 304 350 26,000  Level Washington Center
04:25PM 35.1094 -78.1006 217° Southwest 304 350 26,000  Level Washington Center
04:26PM 35.0456 -78.1644 219° Southwest 304 350 26,000  Level Washington Center
04:27PM 34.9817 -78.2258 218° Southwest 304 350 26,000  Level Washington Center
04:28PM 34.9197 -78.2872 219° Southwest 304 350 26,000  Level Washington Center
04:29PM 34.8556 -78.3508 219° Southwest 304 350 26,000  Level Washington Center
04:30PM 34.7894 -78.4169 219° Southwest 304 350 26,000  Level Washington Center
04:32PM 34.6361 -78.5600 218° Southwest 310 357 26,000  Level Jacksonville Center
04:33PM 34.5736 -78.6211 219° Southwest 304 350 26,000  Level Jacksonville Center
04:34PM 34.5108 -78.6822 219° Southwest 299 344 26,000  Level Jacksonville Center
04:35PM 34.4464 -78.7483 220° Southwest 299 344 26,000  Level Jacksonville Center
04:36PM 34.3858 -78.8092 220° Southwest 294 338 26,000  Level Jacksonville Center
04:37PM 34.3189 -78.8675 216° Southwest 294 338 26,000  Level Jacksonville Center
04:38PM 34.2542 -78.9333 220° Southwest 294 338 26,000  Level Jacksonville Center
04:39PM 34.1892 -78.9914 216° Southwest 299 344 26,000  Level Jacksonville Center
04:40PM 34.1264 -79.0544 220° Southwest 299 344 26,000  Level Jacksonville Center
04:41PM 34.0614 -79.1125 217° Southwest 299 344 26,000 -540 Level Jacksonville Center
04:42PM 33.9925 -79.1781 218° Southwest 304 350 25,000 -1,020 Descending Jacksonville Center
04:43PM 33.9214 -79.2436 217° Southwest 310 357 24,000 -720 Descending Jacksonville Center
04:44PM 33.8522 -79.3092 218° Southwest 316 364 23,600 -780 Descending Jacksonville Center
04:45PM 33.7811 -79.3769 218° Southwest 316 364 22,500 -840 Descending Jacksonville Center
04:46PM 33.7081 -79.4447 218° Southwest 321 369 22,000 -300 Descending Jacksonville Center
04:47PM 33.6408 -79.5072 218° Southwest 310 357 22,000  Level Jacksonville Center
04:48PM 33.5756 -79.5672 217° Southwest 305 351 22,000  Level Jacksonville Center
04:49PM 33.5125 -79.6267 218° Southwest 305 351 22,000 -180 Level Jacksonville Center
04:50PM 33.4472 -79.6864 217° Southwest 300 345 21,700 -960 Descending Jacksonville Center
04:51PM 33.3781 -79.7536 219° Southwest 306 352 20,100 -1,560 Descending Jacksonville Center
04:52PM 33.3044 -79.8208 217° Southwest 326 375 18,600 -1,440 Descending Jacksonville Center
04:53PM 33.2331 -79.8853 217° Southwest 331 381 17,300 -1,440 Descending Jacksonville Center
04:54PM 33.1614 -79.9522 218° Southwest 331 381 15,800 -1,500 Descending Jacksonville Center
04:55PM 33.0919 -80.0142 217° Southwest 331 381 14,300 -1,500 Descending Jacksonville Center
04:56PM 33.0225 -80.0781 218° Southwest 331 381 12,800 -1,440 Descending Jacksonville Center
04:57PM 32.9675 -80.1369 222° Southwest 316 364 11,500 -1,200 Descending Jacksonville Center
04:58PM 32.8936 -80.1986 215° Southwest 316 364 10,500 -1,320 Descending Jacksonville Center
04:59PM 32.8300 -80.2547 217° Southwest 310 357 8,900 -1,380 Descending Jacksonville Center
05:00PM 32.7706 -80.3011 213° Southwest 287 330 7,800 -1,140 Descending Jacksonville Center
05:01PM 32.7172 -80.3519 219° Southwest 268 308 6,700 -1,140 Descending Jacksonville Center
05:02PM 32.6703 -80.4025 222° Southwest 246 283 5,600 -1,440 Descending Jacksonville Center
05:03PM 32.6214 -80.4631 226° Southwest 235 270 3,900 -1,380 Descending Jacksonville Center
05:04PM 32.5783 -80.5111 223° Southwest 230 265 2,900 -1,020 Descending Jacksonville Center